Date,TemperatureHighF,TemperatureAvgF,TemperatureLowF,DewpointHighF,DewpointAvgF,DewpointLowF,HumidityHigh,HumidityAvg,HumidityLow,PressureMaxIn,PressureMinIn,WindSpeedMaxMPH,WindSpeedAvgMPH,GustSpeedMaxMPH,PrecipitationSumIn
2013-1-1,38,34,25,30,24,13,75,65,54,29.99,29.81,10,4,19,0.00
2013-1-2,30,26,20,20,15,11,75,65,58,30.15,29.97,10,3,17,0.00
2013-1-3,31,25,13,20,15,6,75,67,53,30.18,30.04,5,2,10,0.00
2013-1-4,37,33,30,26,23,20,75,68,58,30.05,29.91,9,4,15,0.00
2013-1-5,42,34,27,26,24,20,86,67,53,30.25,29.97,12,4,23,0.00
2013-1-6,44,36,30,32,29,25,89,77,58,30.21,29.94,6,2,11,0.00
2013-1-7,44,36,27,32,27,22,87,71,45,30.38,30.02,8,2,15,0.00
2013-1-8,47,35,24,33,27,20,90,75,57,30.41,30.32,6,2,11,0.00
2013-1-9,45,38,28,38,32,24,87,79,69,30.37,30.10,5,1,9,0.00
2013-1-10,47,40,31,34,27,24,82,60,42,30.53,30.18,9,3,15,0.00
2013-1-11,44,37,31,42,32,26,96,83,65,30.53,30.08,3,0,5,0.27
2013-1-12,47,44,42,45,43,41,97,96,94,30.16,30.07,2,0,5,0.03
2013-1-13,47,45,42,46,44,41,99,97,95,30.15,29.99,3,0,5,0.00
2013-1-14,56,48,36,52,44,31,99,86,65,30.28,29.88,9,2,16,0.07
2013-1-15,38,36,33,33,30,27,94,78,66,30.33,30.19,5,1,8,0.09
2013-1-16,37,34,32,34,32,30,96,92,75,30.23,29.78,5,1,9,0.53
2013-1-17,43,37,31,33,30,21,94,76,59,30.08,29.89,8,2,18,0.00
2013-1-18,31,25,18,22,12,7,85,60,42,30.47,30.01,9,3,14,0.00
2013-1-19,46,38,25,32,26,14,74,61,52,30.38,29.90,9,4,17,0.00
2013-1-20,50,41,28,32,26,12,76,56,32,30.00,29.65,11,6,23,0.00
2013-1-21,30,26,20,22,16,10,83,66,51,30.07,29.80,8,2,18,0.00
2013-1-22,25,19,12,20,4,-6,84,52,38,30.17,29.80,11,7,22,0.00
2013-1-23,19,13,7,3,-1,-4,79,55,42,30.23,30.14,10,4,20,0.00
2013-1-24,23,14,5,4,2,0,89,62,38,30.36,30.13,12,4,25,0.00
2013-1-25,24,17,10,18,8,1,87,66,45,30.39,30.04,8,2,15,0.03
2013-1-26,27,19,12,13,10,7,85,68,48,30.33,30.03,8,3,13,0.00
2013-1-27,34,25,15,17,12,8,81,60,38,30.50,30.33,7,2,13,0.00
2013-1-28,34,29,22,33,26,15,95,85,66,30.47,29.99,4,1,8,0.19
2013-1-29,42,37,34,41,35,33,96,92,88,30.14,29.98,3,1,5,0.06
2013-1-30,53,46,38,53,45,37,100,98,93,30.09,29.36,7,1,10,0.06
2013-1-31,56,44,28,56,32,13,100,67,39,29.73,29.02,14,8,26,0.83
2013-2-1,31,27,22,17,12,5,69,54,38,30.19,29.73,11,6,27,0.00
2013-2-2,29,23,18,21,13,7,88,65,41,30.28,30.04,9,4,15,0.02
2013-2-3,32,26,19,22,18,14,88,74,55,30.04,29.77,5,1,9,0.01
2013-2-4,30,26,21,21,14,10,83,59,43,29.95,29.78,11,5,21,0.00
2013-2-5,30,29,26,26,23,16,86,78,63,29.97,29.89,2,0,4,0.00
2013-2-6,38,32,28,28,22,9,92,67,43,30.33,29.90,9,3,17,0.00
2013-2-7,32,27,22,23,14,8,75,57,41,30.50,30.31,4,1,8,0.00
2013-2-8,32,30,26,31,28,22,96,90,74,30.34,29.60,9,4,21,0.93
2013-2-9,32,26,19,24,18,7,96,73,48,30.30,29.71,12,6,24,0.46
2013-2-10,42,25,14,20,10,3,78,56,27,30.46,30.30,5,2,11,0.00
2013-2-11,42,35,27,41,33,19,100,91,71,30.32,29.65,5,0,9,0.30
2013-2-12,43,38,33,38,30,25,100,72,55,29.95,29.68,10,4,22,0.01
2013-2-13,45,35,23,32,26,21,96,72,47,29.93,29.68,5,1,12,0.05
2013-2-14,45,37,29,33,29,26,93,76,52,29.98,29.70,5,1,8,0.01
2013-2-15,53,40,29,37,32,26,88,75,45,30.00,29.90,6,2,11,0.00
2013-2-16,39,34,29,34,26,16,93,73,54,29.95,29.70,6,3,14,0.03
2013-2-17,31,25,16,16,7,2,58,48,33,29.93,29.61,16,8,29,0.00
2013-2-18,34,24,16,18,10,4,70,54,39,30.20,29.93,14,6,26,0.00
2013-2-19,45,35,23,41,30,17,96,80,59,30.19,29.65,11,2,18,0.25
2013-2-20,37,30,24,28,17,11,71,59,46,29.93,29.67,13,8,26,0.00
2013-2-21,33,27,23,17,15,13,71,60,50,30.27,29.93,14,7,27,0.00
2013-2-22,38,31,23,30,23,15,81,72,56,30.40,30.25,7,2,18,0.00
2013-2-23,39,36,34,38,34,30,97,92,79,30.27,29.79,5,2,9,0.02
2013-2-24,44,38,32,38,34,26,96,86,63,29.93,29.72,9,3,17,0.00
2013-2-25,45,37,30,31,28,24,80,68,52,30.23,29.93,6,2,13,0.00
2013-2-26,40,35,31,33,30,27,95,81,64,30.30,29.92,7,2,14,0.13
2013-2-27,44,41,34,43,39,33,98,95,87,29.93,29.48,11,5,19,0.84
2013-2-28,48,41,36,40,36,32,94,81,63,29.61,29.53,5,1,10,0.02
2013-3-1,45,39,33,35,31,27,92,75,58,29.75,29.58,7,2,14,0.00
2013-3-2,39,35,31,29,27,25,90,71,62,29.75,29.67,7,3,13,0.00
2013-3-3,40,32,28,27,23,19,86,68,51,29.72,29.63,8,4,16,0.00
2013-3-4,40,32,27,25,21,18,76,64,52,29.87,29.71,12,7,25,0.00
2013-3-5,48,38,30,31,27,21,75,64,47,30.01,29.86,8,3,15,0.00
2013-3-6,40,38,36,38,32,29,92,78,66,29.98,29.87,9,4,29,0.02
2013-3-7,38,35,32,32,30,27,96,85,72,30.05,29.91,11,6,22,0.28
2013-3-8,39,34,30,33,30,26,96,85,63,30.17,29.98,8,5,23,0.63
2013-3-9,54,41,32,28,25,20,78,56,27,30.31,30.16,8,3,16,0.00
2013-3-10,50,38,27,37,31,23,88,76,55,30.38,30.29,4,1,7,0.00
2013-3-11,52,44,37,46,40,34,94,86,71,30.32,30.08,5,1,9,0.00
2013-3-12,54,50,43,53,48,39,99,94,81,30.09,29.66,10,4,18,1.28
2013-3-13,50,42,34,40,32,24,92,71,41,29.86,29.76,9,3,17,0.00
2013-3-14,37,32,27,29,15,8,78,50,32,29.92,29.82,15,9,32,0.00
2013-3-15,42,35,28,31,20,9,70,55,40,29.94,29.70,11,5,20,0.00
2013-3-16,38,34,31,30,25,16,87,70,49,29.90,29.76,8,2,14,0.03
2013-3-17,38,33,29,29,21,10,91,64,38,30.29,29.90,8,2,17,0.00
2013-3-18,33,29,23,31,17,8,97,62,43,30.41,30.03,6,3,11,0.39
2013-3-19,40,35,32,36,33,26,97,92,72,30.03,29.67,8,3,17,0.26
2013-3-20,42,36,30,27,22,19,75,58,41,29.85,29.77,11,4,22,0.00
2013-3-21,38,34,30,28,21,15,81,58,41,29.83,29.61,7,3,15,0.00
2013-3-22,40,33,27,25,20,13,74,58,47,29.85,29.70,10,5,20,0.00
2013-3-23,44,37,32,25,21,17,67,53,38,29.90,29.78,13,8,27,0.00
2013-3-24,45,37,29,26,21,16,79,54,40,29.93,29.70,9,3,14,0.00
2013-3-25,42,39,36,35,30,24,90,70,54,29.70,29.44,6,2,16,0.00
2013-3-26,51,41,31,33,29,24,82,63,43,29.84,29.56,9,2,16,0.00
2013-3-27,51,40,28,30,26,21,86,59,32,29.94,29.84,11,4,25,0.00
2013-3-28,49,42,36,35,32,29,77,66,55,30.08,29.93,7,4,16,0.00
2013-3-29,54,45,35,33,31,28,79,58,40,30.11,30.03,10,4,16,0.00
2013-3-30,56,44,32,33,26,18,85,54,23,30.14,30.04,9,2,16,0.00
2013-3-31,54,43,32,42,34,26,94,70,42,30.12,29.65,7,2,13,0.75
2013-4-1,61,46,35,46,37,13,99,75,37,29.87,29.58,14,4,22,0.05
2013-4-2,42,36,30,20,16,11,65,45,32,30.05,29.87,13,6,24,0.00
2013-4-3,46,36,30,20,15,12,61,42,30,30.27,30.05,13,8,26,0.00
2013-4-4,53,39,25,32,22,15,78,54,30,30.37,30.06,7,3,16,0.00
2013-4-5,61,47,37,32,26,17,79,46,23,30.06,29.69,11,4,19,0.00
2013-4-6,51,40,33,28,17,7,70,42,17,30.30,29.97,9,4,17,0.00
2013-4-7,52,43,30,43,34,26,89,72,49,30.30,29.99,13,4,24,0.00
2013-4-8,72,54,37,46,42,36,100,68,32,30.07,29.97,7,2,14,0.00
2013-4-9,77,63,48,51,43,37,89,55,24,29.99,29.89,9,1,22,0.00
2013-4-10,70,59,51,54,49,39,95,69,46,29.97,29.79,0,0,0,0.36
2013-4-11,62,54,45,56,49,39,98,84,62,30.05,29.77,5,2,12,0.01
2013-4-12,45,42,38,40,38,32,98,87,63,30.04,29.71,11,4,23,1.73
2013-4-13,56,46,37,41,38,34,98,75,49,29.95,29.73,7,2,14,0.20
2013-4-14,55,48,40,42,33,28,89,59,38,30.21,29.94,13,4,24,0.00
2013-4-15,56,46,35,36,31,26,87,58,39,30.37,30.21,7,2,13,0.00
2013-4-16,62,52,40,53,46,34,92,80,67,30.36,30.10,8,3,14,0.00
2013-4-17,67,57,46,56,43,35,95,63,33,30.27,30.09,6,2,13,0.07
2013-4-18,59,51,42,50,43,38,96,74,47,30.34,30.10,6,2,10,0.00
2013-4-19,71,60,52,64,58,50,100,92,75,30.10,29.63,8,2,14,0.07
2013-4-20,60,51,43,60,38,25,99,65,34,30.28,29.62,11,4,23,0.25
2013-4-21,51,42,30,32,22,18,80,48,27,30.61,30.28,10,4,17,0.00
2013-4-22,52,43,32,37,31,22,96,66,37,30.67,30.49,11,4,19,0.00
2013-4-23,51,43,36,42,37,31,93,80,72,30.49,30.09,6,2,11,0.00
2013-4-24,69,52,38,52,45,37,97,79,50,30.10,29.82,7,2,11,0.00
2013-4-25,63,53,41,51,34,20,97,55,23,30.25,29.85,12,4,22,0.00
2013-4-26,64,51,35,38,34,25,95,57,26,30.40,30.25,7,2,12,0.00
2013-4-27,68,54,41,37,31,21,70,44,18,30.41,30.25,8,2,13,0.00
2013-4-28,66,52,37,45,36,28,96,59,29,30.30,30.19,10,2,17,0.00
2013-4-29,56,53,49,48,43,36,87,71,54,30.23,30.18,7,2,12,0.01
2013-4-30,66,56,43,47,39,28,79,56,28,30.32,30.20,5,2,8,0.00
2013-5-1,66,52,35,47,39,29,94,65,30,30.47,30.32,5,1,9,0.00
2013-5-2,73,56,38,49,42,37,100,65,30,30.46,30.30,4,1,8,0.00
2013-5-3,63,55,45,45,40,33,87,58,38,30.44,30.33,6,3,14,0.00
2013-5-4,69,54,40,48,44,39,100,73,43,30.36,30.21,5,1,8,0.00
2013-5-5,61,49,41,45,42,38,97,78,50,30.29,30.20,3,1,9,0.00
2013-5-6,69,54,39,54,48,38,99,81,58,30.26,30.14,4,1,7,0.00
2013-5-7,73,59,43,60,52,42,100,81,60,30.16,30.07,4,1,9,0.00
2013-5-8,62,59,52,62,57,-100,100,97,92,30.10,29.97,3,-4,7,0.51
2013-5-9,64,57,52,60,56,51,100,97,83,30.00,29.87,2,0,9,0.27
2013-5-10,78,63,47,62,55,47,100,79,45,29.98,29.87,5,1,10,0.01
2013-5-11,64,61,57,63,60,55,100,98,91,29.88,29.67,3,0,7,0.42
2013-5-12,68,59,49,60,47,30,100,68,31,29.90,29.62,9,3,24,0.03
2013-5-13,54,47,37,36,32,27,91,59,38,30.08,29.89,8,3,18,0.00
2013-5-14,59,47,33,36,32,25,97,63,29,30.10,30.00,8,2,20,0.00
2013-5-15,64,52,35,53,45,33,95,80,58,30.06,29.67,10,2,17,0.03
2013-5-16,80,62,47,58,51,45,100,71,32,29.81,29.69,5,1,9,0.01
2013-5-17,71,60,49,51,44,38,94,59,37,30.19,29.80,6,2,17,0.00
2013-5-18,70,55,43,56,50,42,99,84,48,30.30,30.19,3,0,7,0.06
2013-5-19,57,55,53,57,55,52,100,99,97,30.32,30.16,2,0,6,0.31
2013-5-20,78,65,56,68,62,56,100,91,70,30.16,29.94,3,1,9,0.01
2013-5-21,88,71,56,72,65,56,100,85,56,29.96,29.80,3,1,7,0.00
2013-5-22,77,66,57,70,63,56,99,92,75,29.91,29.82,3,0,7,0.00
2013-5-23,74,66,63,71,65,63,100,98,87,29.87,29.74,9,0,9,3.13
2013-5-24,63,55,45,63,55,42,100,97,90,29.90,29.65,7,2,17,0.14
2013-5-25,50,46,42,47,43,41,98,92,81,29.96,29.84,8,4,19,0.71
2013-5-26,63,53,43,45,41,38,93,68,43,30.18,29.90,12,5,27,0.00
2013-5-27,74,57,39,51,43,36,99,66,30,30.21,30.09,7,1,13,0.00
2013-5-28,66,55,46,57,51,45,100,90,52,30.21,30.12,1,0,4,0.31
2013-5-29,80,63,56,71,61,56,100,95,70,30.13,29.98,3,0,7,0.02
2013-5-30,90,75,60,72,66,60,100,77,45,30.10,30.02,4,1,11,0.00
2013-5-31,92,75,62,73,66,61,100,78,41,30.10,29.96,3,0,9,0.00
2013-6-1,89,74,61,74,67,60,100,82,54,29.99,29.87,3,1,9,0.00
2013-6-2,86,74,64,74,68,63,100,85,62,29.89,29.73,4,1,8,0.09
2013-6-3,78,69,64,69,65,54,100,88,63,29.85,29.78,4,0,9,1.74
2013-6-4,74,62,51,54,45,38,89,58,28,30.09,29.85,8,3,13,0.00
2013-6-5,73,61,49,49,46,41,90,60,33,30.19,30.09,7,2,16,0.00
2013-6-6,68,59,48,58,53,46,99,82,47,30.14,30.02,8,2,15,0.18
2013-6-7,60,58,57,60,58,57,100,100,99,30.02,29.64,3,0,10,2.86
2013-6-8,76,64,54,66,60,54,100,87,66,30.03,29.58,6,2,14,0.71
2013-6-9,79,66,54,65,58,53,100,79,49,30.15,30.03,7,1,13,0.00
2013-6-10,69,62,59,66,61,58,100,98,90,30.15,29.84,2,1,12,0.92
2013-6-11,80,68,59,70,64,57,100,87,63,29.84,29.58,8,2,18,0.50
2013-6-12,73,66,56,60,56,53,95,71,52,29.83,29.66,10,4,20,0.00
2013-6-13,60,57,53,60,56,52,100,98,95,29.82,29.49,4,1,13,0.93
2013-6-14,72,59,51,62,55,51,99,88,63,29.86,29.52,5,2,14,0.48
2013-6-15,78,65,54,59,56,52,100,75,43,29.99,29.86,7,1,12,0.00
2013-6-16,79,67,52,66,60,52,100,80,50,29.98,29.74,5,1,13,0.00
2013-6-17,84,70,58,73,64,58,100,83,54,29.89,29.80,10,1,18,0.10
2013-6-18,82,67,58,72,65,58,100,92,60,29.89,29.80,3,0,9,0.23
2013-6-19,75,62,55,62,56,46,99,83,38,30.15,29.87,4,1,9,0.00
2013-6-20,80,64,50,62,56,50,100,78,41,30.25,30.15,3,0,8,0.00
2013-6-21,84,68,53,68,59,52,100,75,49,30.28,30.20,4,1,6,0.00
2013-6-22,84,68,54,66,60,54,100,77,50,30.25,30.11,3,1,9,0.00
2013-6-23,89,72,58,74,66,57,100,82,56,30.17,30.03,4,1,7,0.00
2013-6-24,92,78,66,75,70,65,100,80,45,30.04,29.89,8,1,9,0.04
2013-6-25,90,77,64,76,69,64,100,79,52,29.97,29.76,4,1,10,0.00
2013-6-26,81,76,70,73,69,67,97,80,67,29.81,29.73,6,1,13,0.00
2013-6-27,84,74,67,75,70,66,100,90,72,29.80,29.53,2,0,6,1.25
2013-6-28,85,76,69,75,71,66,100,86,60,29.54,29.43,5,1,8,0.04
2013-6-29,84,74,65,72,69,65,100,85,61,29.68,29.46,3,1,10,0.00
2013-6-30,74,69,65,72,68,65,100,97,94,29.90,29.68,1,0,2,0.01
2013-7-1,75,72,71,73,72,70,100,99,95,30.03,29.88,4,0,4,1.99
2013-7-2,82,74,70,77,73,70,100,96,83,30.15,30.03,2,0,4,0.02
2013-7-3,83,75,69,77,73,69,100,92,75,30.22,30.14,3,0,7,0.03
2013-7-4,88,79,72,78,74,72,100,87,66,30.22,30.11,3,1,6,0.00
2013-7-5,92,80,72,79,74,71,98,84,56,30.18,30.05,5,1,10,0.00
2013-7-6,90,80,74,78,74,72,96,82,60,30.10,29.99,4,1,9,0.00
2013-7-7,94,81,71,79,74,69,100,82,54,30.02,29.87,3,1,7,0.00
2013-7-8,89,79,70,73,70,68,95,76,55,30.00,29.93,5,1,7,0.00
2013-7-9,87,76,67,76,71,66,100,86,58,30.04,29.95,3,0,5,0.01
2013-7-10,84,77,71,79,74,70,99,90,74,29.99,29.77,3,0,5,0.21
2013-7-11,82,75,67,75,72,65,100,89,69,29.90,29.77,3,1,9,0.04
2013-7-12,77,71,64,72,67,63,98,88,74,30.10,29.90,2,1,5,0.16
2013-7-13,79,71,64,76,70,63,100,97,86,30.26,30.10,2,0,4,0.12
2013-7-14,89,79,72,77,74,72,100,86,62,30.31,30.19,4,1,10,0.00
2013-7-15,93,80,72,79,74,71,100,83,57,30.21,30.10,5,1,10,0.00
2013-7-16,92,79,68,74,70,66,99,77,46,30.17,30.10,5,2,11,0.00
2013-7-17,92,80,70,77,72,68,99,79,49,30.17,30.03,3,1,7,0.00
2013-7-18,96,82,71,79,74,70,100,80,47,30.03,29.92,5,1,9,0.00
2013-7-19,95,84,73,80,75,73,100,77,55,29.94,29.75,5,1,7,0.00
2013-7-20,92,83,74,79,74,71,91,75,58,29.82,29.67,5,2,12,0.00
2013-7-21,86,76,69,72,68,64,95,76,50,29.94,29.80,2,0,6,0.00
2013-7-22,83,74,68,77,72,66,100,94,77,29.94,29.79,2,0,4,0.14
2013-7-23,87,76,71,78,73,71,100,92,65,29.79,29.51,5,1,9,1.75
2013-7-24,80,73,64,73,67,54,100,83,64,29.91,29.58,6,2,13,0.00
2013-7-25,65,62,59,60,56,52,89,80,70,30.05,29.91,6,2,13,0.00
2013-7-26,79,68,62,68,62,59,96,81,58,30.02,29.97,5,2,8,0.02
2013-7-27,83,69,58,69,64,57,100,83,56,30.04,29.94,2,0,4,0.00
2013-7-28,76,69,61,70,66,61,100,93,79,29.98,29.92,1,0,6,0.20
2013-7-29,85,73,62,73,66,59,100,82,52,30.07,29.93,5,1,11,0.00
2013-7-30,79,67,56,65,60,56,100,80,52,30.14,30.07,6,1,10,0.01
2013-7-31,82,68,55,67,61,55,100,80,45,30.14,30.02,4,0,8,0.00
2013-8-1,73,66,61,68,65,60,100,97,83,30.03,29.81,1,0,3,0.80
2013-8-2,83,72,63,69,65,61,100,82,53,29.89,29.77,4,1,10,0.01
2013-8-3,77,67,61,70,65,60,100,94,73,29.89,29.82,3,1,7,0.14
2013-8-4,79,65,57,65,60,56,100,86,52,29.95,29.82,6,1,10,0.15
2013-8-5,76,63,53,60,54,49,99,76,43,30.04,29.94,6,2,14,0.00
2013-8-6,82,65,52,65,58,52,100,82,43,30.12,30.03,2,0,6,0.00
2013-8-7,77,67,58,68,64,57,100,89,69,30.14,30.05,2,0,5,0.00
2013-8-8,80,72,68,76,71,67,100,97,85,30.06,29.99,2,0,6,0.22
2013-8-9,84,74,70,78,73,69,100,97,76,30.00,29.76,4,1,6,0.39
2013-8-10,81,71,60,71,64,59,100,81,55,30.03,29.83,7,2,13,0.00
2013-8-11,79,66,53,65,59,52,100,79,48,30.11,30.01,4,0,7,0.00
2013-8-12,82,70,63,69,64,60,100,84,48,30.02,29.90,2,0,4,0.00
2013-8-13,76,68,62,71,67,61,100,96,79,29.92,29.68,1,0,3,0.35
2013-8-14,74,64,54,67,56,50,100,77,52,30.02,29.72,10,3,19,0.00
2013-8-15,77,62,48,59,53,48,100,78,43,30.13,30.03,5,1,13,0.00
2013-8-16,79,64,52,63,56,51,100,80,46,30.19,30.11,3,0,6,0.00
2013-8-17,80,66,53,67,60,52,100,84,51,30.27,30.19,2,0,5,0.00
2013-8-18,75,66,58,64,60,56,96,85,64,30.25,30.12,3,0,5,0.00
2013-8-19,78,67,57,67,61,56,98,82,57,30.12,30.00,4,1,7,0.01
2013-8-20,86,70,57,70,63,57,100,81,45,30.11,30.02,4,1,9,0.01
2013-8-21,89,72,59,73,64,58,100,80,44,30.16,30.02,3,1,7,0.00
2013-8-22,74,69,63,73,68,63,100,97,91,30.04,29.85,3,0,3,0.98
2013-8-23,80,70,60,68,62,56,100,79,49,30.09,29.85,6,2,13,0.00
2013-8-24,80,65,55,64,56,51,97,75,47,30.34,30.09,4,1,8,0.00
2013-8-25,84,65,52,65,56,51,100,78,40,30.38,30.20,4,0,6,0.01
2013-8-26,77,69,60,69,64,58,99,82,68,30.21,29.89,3,1,7,0.56
2013-8-27,84,73,67,74,69,67,100,89,62,29.89,29.78,6,1,15,0.14
2013-8-28,85,71,63,76,69,63,100,92,65,29.88,29.82,3,0,4,0.01
2013-8-29,78,70,65,71,68,64,100,93,74,30.01,29.87,1,0,2,0.00
2013-8-30,84,72,65,72,68,64,100,88,63,30.01,29.82,3,0,6,0.01
2013-8-31,83,75,70,77,72,69,99,91,75,29.84,29.76,2,0,4,0.00
2013-9-1,81,74,69,77,72,69,100,95,83,29.84,29.77,1,0,7,0.00
2013-9-2,79,74,68,76,72,68,100,97,89,29.79,29.68,1,0,4,0.02
2013-9-3,81,70,62,72,66,58,100,87,58,29.86,29.68,6,1,10,0.12
2013-9-4,81,66,55,63,59,55,100,80,48,29.98,29.85,6,1,11,0.00
2013-9-5,75,63,50,65,56,48,100,82,50,30.14,29.90,6,1,10,0.00
2013-9-6,68,56,47,48,45,40,96,71,36,30.24,30.12,4,1,8,0.00
2013-9-7,78,60,44,60,52,43,100,79,40,30.12,29.89,3,0,7,0.00
2013-9-8,79,66,54,67,57,47,97,75,44,30.07,29.80,7,2,13,0.00
2013-9-9,72,58,44,58,50,43,100,78,51,30.23,30.07,2,0,5,0.00
2013-9-10,82,69,57,76,67,56,100,94,76,30.15,30.03,3,0,4,0.11
2013-9-11,92,78,68,82,74,68,100,89,66,30.09,29.95,2,0,9,0.00
2013-9-12,87,73,67,77,70,67,100,93,68,29.97,29.67,6,0,8,2.10
2013-9-13,75,65,55,67,62,52,100,91,63,29.82,29.59,5,2,11,0.11
2013-9-14,66,56,47,56,50,46,98,83,62,30.11,29.82,6,2,10,0.00
2013-9-15,71,54,41,56,48,41,100,84,50,30.20,30.07,3,0,8,0.00
2013-9-16,71,58,51,60,54,46,100,87,56,30.23,30.01,5,1,12,0.01
2013-9-17,66,52,42,49,44,39,97,76,45,30.42,30.23,6,1,11,0.00
2013-9-18,73,52,39,53,46,38,100,82,37,30.35,30.17,2,0,5,0.00
2013-9-19,78,56,42,58,50,41,100,82,39,30.19,30.06,2,0,5,0.00
2013-9-20,79,59,45,65,54,45,100,86,50,30.08,29.99,2,0,3,0.01
2013-9-21,72,62,52,68,61,51,100,95,85,30.00,29.65,4,1,9,0.22
2013-9-22,68,60,48,67,54,45,100,82,56,29.89,29.63,8,2,14,0.80
2013-9-23,67,52,42,50,45,41,98,81,49,30.03,29.89,7,2,14,0.00
2013-9-24,74,52,37,55,46,37,100,84,44,30.04,29.86,5,1,11,0.00
2013-9-25,72,55,44,56,49,43,100,83,46,29.95,29.86,4,1,9,0.00
2013-9-26,69,57,48,60,53,47,100,90,63,30.10,29.93,4,0,5,0.00
2013-9-27,64,55,46,58,52,46,100,92,73,30.26,30.10,2,0,4,0.00
2013-9-28,74,57,46,60,53,46,100,86,55,30.32,30.24,3,0,8,0.00
2013-9-29,70,55,45,61,52,45,100,91,69,30.24,30.08,2,0,3,0.00
2013-9-30,73,55,43,60,51,43,100,88,56,30.08,29.96,2,0,5,0.00
2013-10-1,81,60,45,63,54,45,100,85,46,29.99,29.88,5,1,10,0.00
2013-10-2,82,63,49,67,58,49,100,85,56,29.99,29.88,7,1,17,0.00
2013-10-3,76,61,48,63,56,48,100,85,48,30.11,29.99,4,0,7,0.01
2013-10-4,82,65,55,73,63,54,100,94,65,30.06,29.95,3,0,7,0.12
2013-10-5,76,65,60,69,63,60,100,94,72,30.08,30.01,2,0,3,0.00
2013-10-6,64,63,62,64,63,62,100,100,99,30.10,30.03,1,0,5,0.02
2013-10-7,71,65,56,70,65,54,100,98,90,30.03,29.75,6,1,14,0.47
2013-10-8,66,54,45,54,48,45,100,83,49,30.33,29.94,6,1,13,0.01
2013-10-9,61,51,45,52,47,42,98,86,61,30.41,30.30,2,0,8,0.00
2013-10-10,63,54,48,58,52,46,95,90,82,30.31,30.09,3,1,9,0.00
2013-10-11,66,61,55,62,58,53,93,89,82,30.09,30.02,3,1,8,0.00
2013-10-12,73,61,54,59,52,46,93,75,43,30.29,30.07,2,1,6,0.00
2013-10-13,63,55,48,53,50,47,97,84,65,30.38,30.28,6,2,12,0.00
2013-10-14,67,53,44,56,49,44,100,86,59,30.36,30.24,3,0,4,0.00
2013-10-15,72,54,44,59,49,44,100,85,49,30.25,30.11,1,0,4,0.00
2013-10-16,63,55,46,58,53,45,100,94,79,30.11,29.91,1,0,3,0.00
2013-10-17,76,64,58,63,60,57,100,91,61,29.90,29.67,2,0,6,0.02
2013-10-18,67,58,44,62,50,42,100,75,45,29.96,29.65,10,3,21,0.01
2013-10-19,62,50,38,54,46,38,100,87,60,29.98,29.73,2,0,5,0.03
2013-10-20,62,51,39,54,44,38,98,77,45,30.05,29.73,8,3,12,0.00
2013-10-21,67,49,34,47,41,34,100,78,36,30.14,29.98,4,1,7,0.00
2013-10-22,64,49,38,54,46,38,100,89,64,29.98,29.73,5,1,8,0.01
2013-10-23,53,43,34,43,38,34,100,83,58,29.80,29.61,4,1,15,0.00
2013-10-24,54,44,36,38,33,29,93,69,43,29.98,29.73,8,3,18,0.00
2013-10-25,52,42,34,36,33,30,89,70,51,30.21,29.98,9,3,18,0.00
2013-10-26,55,42,28,38,32,27,100,72,42,30.20,29.89,7,2,15,0.00
2013-10-27,57,46,34,41,36,32,93,70,43,30.10,29.83,10,2,19,0.01
2013-10-28,61,44,30,40,34,29,100,74,41,30.32,30.10,7,2,13,0.00
2013-10-29,51,42,34,36,33,30,89,72,52,30.42,30.32,3,0,7,0.00
2013-10-30,56,44,34,50,41,32,97,88,74,30.34,30.18,2,0,4,0.00
2013-10-31,61,51,36,59,51,36,100,97,92,30.23,29.80,3,0,6,0.05
2013-11-1,68,61,50,63,57,48,99,89,62,29.79,29.52,9,2,11,0.18
2013-11-2,66,52,43,52,46,42,100,82,50,29.77,29.59,6,1,8,0.00
2013-11-3,47,42,33,43,34,20,98,75,58,30.43,29.77,8,3,15,0.00
2013-11-4,45,35,27,28,22,17,87,62,33,30.66,30.43,5,1,10,0.00
2013-11-5,51,41,30,40,35,26,93,81,64,30.66,30.48,3,0,7,0.00
2013-11-6,59,48,36,50,44,36,100,87,65,30.49,30.06,5,1,7,0.00
2013-11-7,61,52,38,58,49,31,100,90,64,30.06,29.72,8,3,17,0.20
2013-11-8,48,41,35,33,30,27,90,66,50,30.18,29.89,11,5,23,0.00
2013-11-9,47,41,32,36,30,28,88,66,48,30.27,29.99,7,2,9,0.00
2013-11-10,59,47,40,40,36,29,85,66,41,30.01,29.78,11,5,18,0.01
2013-11-11,50,46,40,35,31,28,64,56,48,30.17,29.94,10,5,23,0.00
2013-11-12,49,36,28,38,28,19,96,73,57,30.26,29.91,7,3,13,0.19
2013-11-13,37,30,22,22,18,12,82,61,35,30.35,30.25,11,3,14,0.00
2013-11-14,50,39,30,23,22,18,75,51,31,30.25,30.13,7,3,12,0.00
2013-11-15,56,37,26,32,26,23,92,69,27,30.24,30.14,5,1,7,0.00
2013-11-16,60,44,29,45,39,27,99,83,49,30.32,30.22,4,1,6,0.01
2013-11-17,59,52,40,59,52,39,100,100,98,30.27,29.78,2,0,4,0.02
2013-11-18,63,57,48,59,44,29,100,66,36,29.78,29.58,11,4,15,0.22
2013-11-19,48,41,31,31,27,23,70,58,50,30.32,29.75,12,7,22,0.00
2013-11-20,44,33,24,23,19,13,85,59,31,30.61,30.32,12,3,19,0.00
2013-11-21,48,36,21,38,29,19,94,78,56,30.62,30.39,3,0,5,0.00
2013-11-22,51,47,42,50,45,38,100,94,85,30.38,29.88,5,1,9,0.19
2013-11-23,52,40,28,49,28,15,93,62,43,30.01,29.87,13,7,22,0.01
2013-11-24,29,24,21,18,8,0,69,49,29,30.33,29.97,15,10,29,0.00
2013-11-25,33,27,20,18,14,9,74,58,44,30.46,30.31,9,4,14,0.00
2013-11-26,44,35,32,44,26,17,100,71,47,30.33,29.82,6,2,9,0.51
2013-11-27,60,46,32,60,44,24,100,96,69,29.82,29.30,13,5,22,3.32
2013-11-28,32,29,24,24,17,11,79,61,45,30.46,29.68,13,7,24,0.00
2013-11-29,36,29,24,24,22,17,93,74,59,30.72,30.45,5,1,9,0.00
2013-11-30,33,27,19,28,19,13,87,74,55,30.76,30.38,3,1,6,0.00
2013-12-1,48,38,31,38,32,28,93,81,62,30.38,30.00,4,0,6,0.00
2013-12-2,45,35,29,38,33,28,98,91,72,30.00,29.88,1,0,3,0.00
2013-12-3,50,35,27,39,32,26,100,89,62,30.00,29.86,3,0,8,0.00
2013-12-4,51,39,28,42,35,28,100,86,63,30.15,30.00,3,0,6,0.00
2013-12-5,53,50,43,53,50,42,100,99,93,30.13,29.93,2,0,4,0.03
2013-12-6,54,44,35,54,44,34,100,97,92,30.14,29.86,6,2,13,0.68
2013-12-7,40,35,30,34,30,21,95,82,61,30.50,30.07,7,2,14,0.04
2013-12-8,32,30,24,26,22,17,86,72,63,30.59,30.40,3,1,5,0.00
2013-12-9,38,34,30,37,33,27,97,95,87,30.39,29.94,5,2,8,0.04
2013-12-10,35,32,26,33,29,20,96,90,77,30.09,29.84,6,2,10,0.14
2013-12-11,33,28,24,22,19,17,78,70,60,30.29,30.09,8,4,10,0.00
2013-12-12,26,22,15,17,11,8,84,62,47,30.33,30.14,8,4,14,0.00
2013-12-13,33,26,19,21,15,8,76,61,54,30.33,30.10,11,4,16,0.00
2013-12-14,28,22,17,27,18,14,95,84,67,30.51,29.85,6,2,11,0.16
2013-12-15,35,32,27,33,29,24,97,92,83,29.84,29.50,10,2,10,0.34
2013-12-16,30,23,10,25,15,8,92,73,53,30.23,29.80,11,4,15,0.00
2013-12-17,28,20,8,25,18,6,96,91,85,30.23,29.94,4,1,8,0.18
2013-12-18,35,27,20,25,21,16,87,77,64,30.15,29.92,10,3,15,0.00
2013-12-19,44,34,21,32,25,17,89,73,53,30.17,30.01,7,2,13,0.00
2013-12-20,48,40,33,36,33,30,88,76,59,30.10,29.96,5,1,8,0.00
2013-12-21,57,47,38,50,42,34,97,85,70,30.00,29.89,5,1,6,0.00
2013-12-22,66,58,46,62,55,44,99,90,80,29.95,29.79,8,2,13,0.00
2013-12-23,58,52,39,57,50,36,99,95,88,30.11,29.87,9,2,12,0.53
2013-12-24,39,33,24,36,27,12,92,76,59,30.30,30.07,9,3,21,0.03
2013-12-25,27,23,17,18,11,8,70,61,46,30.52,30.30,11,3,18,0.00
2013-12-26,34,30,27,27,24,17,85,77,66,30.43,30.14,6,2,9,0.00
2013-12-27,38,31,23,26,23,20,87,73,54,30.34,30.24,7,2,12,0.00
2013-12-28,50,39,28,30,27,24,86,65,44,30.27,30.05,8,2,12,0.00
2013-12-29,44,40,35,43,36,30,97,86,61,30.06,29.42,6,1,10,1.00
2013-12-30,41,33,19,38,26,13,97,77,56,30.18,29.66,9,3,19,0.00
2013-12-31,29,23,17,24,15,10,87,71,53,30.26,30.05,10,3,16,0.00
2014-1-1,32,26,18,22,15,10,82,64,56,30.41,30.25,8,2,14,0.00
2014-1-2,30,23,14,22,19,12,90,84,65,30.26,29.69,7,3,16,0.16